sensor_id;sensor_type;location;lat;lon;timestamp;pressure;altitude;pressure_sealevel;temperature;humidity
69879;BME280;57161;43.136;24.706;2022-09-09T00:06:30;99184.53;;;21.20;55.86
69879;BME280;57161;43.136;24.706;2022-09-09T00:09:21;99192.56;;;21.24;56.12
69879;BME280;57161;43.136;24.706;2022-09-09T00:11:55;99187.50;;;21.22;55.90
69879;BME280;57161;43.136;24.706;2022-09-09T00:17:41;99189.59;;;21.22;56.12
69879;BME280;57161;43.136;24.706;2022-09-09T00:20:14;99191.06;;;21.23;55.99
69879;BME280;57161;43.136;24.706;2022-09-09T00:22:49;99182.94;;;21.29;55.83
69879;BME280;57161;43.136;24.706;2022-09-09T00:25:26;99186.88;;;21.24;56.06
69879;BME280;57161;43.136;24.706;2022-09-09T00:27:54;99181.47;;;21.16;55.81
69879;BME280;57161;43.136;24.706;2022-09-09T00:30:28;99187.72;;;21.15;55.85
69879;BME280;57161;43.136;24.706;2022-09-09T00:33:05;99179.59;;;21.09;55.30
69879;BME280;57161;43.136;24.706;2022-09-09T00:35:45;99179.47;;;21.19;55.01
69879;BME280;57161;43.136;24.706;2022-09-09T00:38:25;99182.19;;;21.17;56.68
69879;BME280;57161;43.136;24.706;2022-09-09T00:41:03;99175.03;;;21.16;56.46
69879;BME280;57161;43.136;24.706;2022-09-09T00:43:37;99164.31;;;21.03;56.93
69879;BME280;57161;43.136;24.706;2022-09-09T00:46:25;99169.22;;;21.14;57.34
69879;BME280;57161;43.136;24.706;2022-09-09T00:49:34;99172.06;;;21.14;57.59
69879;BME280;57161;43.136;24.706;2022-09-09T00:57:38;99165.03;;;21.03;57.30
69879;BME280;57161;43.136;24.706;2022-09-09T01:05:54;99161.19;;;21.10;56.34
69879;BME280;57161;43.136;24.706;2022-09-09T01:11:04;99153.44;;;20.99;57.36
69879;BME280;57161;43.136;24.706;2022-09-09T01:13:32;99156.41;;;21.01;57.64
69879;BME280;57161;43.136;24.706;2022-09-09T01:16:00;99149.97;;;21.01;57.79
69879;BME280;57161;43.136;24.706;2022-09-09T01:19:00;99151.19;;;20.97;58.54
69879;BME280;57161;43.136;24.706;2022-09-09T01:21:48;99161.06;;;20.96;58.04
69879;BME280;57161;43.136;24.706;2022-09-09T01:26:51;99149.97;;;20.89;58.08
69879;BME280;57161;43.136;24.706;2022-09-09T01:29:19;99153.31;;;20.85;57.69
69879;BME280;57161;43.136;24.706;2022-09-09T01:32:00;99156.91;;;20.74;57.46
69879;BME280;57161;43.136;24.706;2022-09-09T01:34:38;99142.19;;;20.43;57.35
69879;BME280;57161;43.136;24.706;2022-09-09T01:37:09;99150.47;;;20.50;58.01
69879;BME280;57161;43.136;24.706;2022-09-09T01:39:36;99145.88;;;20.45;58.35
69879;BME280;57161;43.136;24.706;2022-09-09T01:42:04;99131.53;;;20.31;58.35
69879;BME280;57161;43.136;24.706;2022-09-09T01:44:31;99134.75;;;20.37;58.50
69879;BME280;57161;43.136;24.706;2022-09-09T01:46:57;99137.47;;;20.35;58.58
69879;BME280;57161;43.136;24.706;2022-09-09T01:49:23;99137.94;;;20.32;58.82
69879;BME280;57161;43.136;24.706;2022-09-09T01:51:52;99137.94;;;20.32;58.44
69879;BME280;57161;43.136;24.706;2022-09-09T01:54:20;99133.41;;;20.38;58.73
69879;BME280;57161;43.136;24.706;2022-09-09T01:57:15;99135.16;;;20.44;59.22
69879;BME280;57161;43.136;24.706;2022-09-09T02:00:06;99132.94;;;20.42;59.90
69879;BME280;57161;43.136;24.706;2022-09-09T02:07:48;99144.88;;;20.41;60.74
69879;BME280;57161;43.136;24.706;2022-09-09T02:12:55;99143.13;;;20.24;60.52
69879;BME280;57161;43.136;24.706;2022-09-09T02:17:55;99138.31;;;20.26;59.00
69879;BME280;57161;43.136;24.706;2022-09-09T02:20:23;99145.09;;;20.21;58.87
69879;BME280;57161;43.136;24.706;2022-09-09T02:22:50;99153.97;;;20.27;60.19
69879;BME280;57161;43.136;24.706;2022-09-09T02:25:20;99127.06;;;20.17;60.31
69879;BME280;57161;43.136;24.706;2022-09-09T02:27:48;99144.59;;;20.25;60.16
69879;BME280;57161;43.136;24.706;2022-09-09T02:30:15;99148.53;;;20.20;60.15
69879;BME280;57161;43.136;24.706;2022-09-09T02:32:42;99146.44;;;20.20;60.46
69879;BME280;57161;43.136;24.706;2022-09-09T02:35:10;99152.00;;;20.18;60.32
69879;BME280;57161;43.136;24.706;2022-09-09T02:37:41;99143.09;;;20.12;58.48
69879;BME280;57161;43.136;24.706;2022-09-09T02:40:10;99146.44;;;20.20;58.20
69879;BME280;57161;43.136;24.706;2022-09-09T02:42:40;99140.88;;;20.11;58.07
69879;BME280;57161;43.136;24.706;2022-09-09T02:45:08;99154.19;;;20.08;59.67
69879;BME280;57161;43.136;24.706;2022-09-09T02:47:38;99140.94;;;20.01;58.97
69879;BME280;57161;43.136;24.706;2022-09-09T02:52:47;99152.09;;;20.08;60.25
69879;BME280;57161;43.136;24.706;2022-09-09T02:55:35;99140.94;;;20.01;60.38
69879;BME280;57161;43.136;24.706;2022-09-09T02:58:05;99151.44;;;19.98;59.59
69879;BME280;57161;43.136;24.706;2022-09-09T03:00:32;99150.81;;;20.00;59.95
69879;BME280;57161;43.136;24.706;2022-09-09T03:02:58;99151.44;;;19.98;60.73
69879;BME280;57161;43.136;24.706;2022-09-09T03:05:24;99152.16;;;19.99;60.89
69879;BME280;57161;43.136;24.706;2022-09-09T03:07:50;99138.22;;;19.91;60.93
69879;BME280;57161;43.136;24.706;2022-09-09T03:10:17;99138.72;;;19.88;61.03
69879;BME280;57161;43.136;24.706;2022-09-09T03:12:42;99149.69;;;19.93;59.85
69879;BME280;57161;43.136;24.706;2022-09-09T03:15:08;99141.69;;;19.90;59.65
69879;BME280;57161;43.136;24.706;2022-09-09T03:17:35;99143.16;;;19.91;59.59
69879;BME280;57161;43.136;24.706;2022-09-09T03:20:04;99123.66;;;19.85;59.65
69879;BME280;57161;43.136;24.706;2022-09-09T03:22:30;99144.03;;;19.93;58.87
69879;BME280;57161;43.136;24.706;2022-09-09T03:24:56;99144.63;;;19.92;58.73
69879;BME280;57161;43.136;24.706;2022-09-09T03:27:21;99142.28;;;19.88;58.44
69879;BME280;57161;43.136;24.706;2022-09-09T03:29:47;99140.81;;;19.87;58.71
69879;BME280;57161;43.136;24.706;2022-09-09T03:32:15;99153.75;;;19.90;59.20
69879;BME280;57161;43.136;24.706;2022-09-09T03:34:42;99149.03;;;19.83;59.42
69879;BME280;57161;43.136;24.706;2022-09-09T03:37:07;99152.03;;;19.85;59.94
69879;BME280;57161;43.136;24.706;2022-09-09T03:39:33;99159.56;;;19.92;60.65
69879;BME280;57161;43.136;24.706;2022-09-09T03:42:01;99163.13;;;19.93;60.58
69879;BME280;57161;43.136;24.706;2022-09-09T03:44:30;99150.25;;;19.80;61.00
69879;BME280;57161;43.136;24.706;2022-09-09T03:46:55;99170.63;;;19.88;61.15
69879;BME280;57161;43.136;24.706;2022-09-09T03:49:21;99159.75;;;19.85;60.58
69879;BME280;57161;43.136;24.706;2022-09-09T03:51:47;99169.63;;;19.84;60.24
69879;BME280;57161;43.136;24.706;2022-09-09T03:54:12;99165.78;;;19.79;60.20
69879;BME280;57161;43.136;24.706;2022-09-09T03:56:38;99170.56;;;19.76;59.49
69879;BME280;57161;43.136;24.706;2022-09-09T03:59:04;99155.28;;;19.70;60.49
69879;BME280;57161;43.136;24.706;2022-09-09T04:01:29;99173.63;;;19.69;60.61
69879;BME280;57161;43.136;24.706;2022-09-09T04:03:55;99170.19;;;19.70;60.75
69879;BME280;57161;43.136;24.706;2022-09-09T04:06:23;99174.09;;;19.65;60.51
69879;BME280;57161;43.136;24.706;2022-09-09T04:08:49;99167.44;;;19.61;60.07
69879;BME280;57161;43.136;24.706;2022-09-09T04:11:15;99166.56;;;19.58;60.13
69879;BME280;57161;43.136;24.706;2022-09-09T04:13:41;99161.06;;;19.50;60.05
69879;BME280;57161;43.136;24.706;2022-09-09T04:16:08;99175.94;;;19.61;59.92
69879;BME280;57161;43.136;24.706;2022-09-09T04:18:34;99169.53;;;19.60;59.97
69879;BME280;57161;43.136;24.706;2022-09-09T04:21:00;99155.09;;;19.56;60.17
69879;BME280;57161;43.136;24.706;2022-09-09T04:23:27;99153.13;;;19.59;60.19
69879;BME280;57161;43.136;24.706;2022-09-09T04:25:57;99165.88;;;19.69;60.08
69879;BME280;57161;43.136;24.706;2022-09-09T04:28:25;99152.50;;;19.60;59.85
69879;BME280;57161;43.136;24.706;2022-09-09T04:30:51;99160.06;;;19.67;60.08
69879;BME280;57161;43.136;24.706;2022-09-09T04:33:18;99157.38;;;19.69;59.92
69879;BME280;57161;43.136;24.706;2022-09-09T04:35:45;99152.84;;;19.76;60.08
69879;BME280;57161;43.136;24.706;2022-09-09T04:38:11;99155.19;;;19.79;59.93
69879;BME280;57161;43.136;24.706;2022-09-09T04:40:36;99151.88;;;19.83;59.57
69879;BME280;57161;43.136;24.706;2022-09-09T04:43:03;99159.81;;;19.96;59.98
69879;BME280;57161;43.136;24.706;2022-09-09T04:45:31;99145.72;;;19.87;59.59
69879;BME280;57161;43.136;24.706;2022-09-09T04:47:59;99164.78;;;20.07;59.63
69879;BME280;57161;43.136;24.706;2022-09-09T04:50:24;99160.63;;;20.20;58.82
69879;BME280;57161;43.136;24.706;2022-09-09T04:52:50;99159.66;;;20.27;58.48
69879;BME280;57161;43.136;24.706;2022-09-09T04:55:16;99172.03;;;20.44;58.41
69879;BME280;57161;43.136;24.706;2022-09-09T04:57:41;99168.25;;;20.51;58.12
69879;BME280;57161;43.136;24.706;2022-09-09T05:00:07;99175.78;;;20.58;58.69
69879;BME280;57161;43.136;24.706;2022-09-09T05:02:37;99182.19;;;20.70;57.58
69879;BME280;57161;43.136;24.706;2022-09-09T05:05:03;99182.69;;;20.90;58.15
69879;BME280;57161;43.136;24.706;2022-09-09T05:07:29;99179.25;;;21.03;57.62
69879;BME280;57161;43.136;24.706;2022-09-09T05:09:56;99176.75;;;21.09;57.62
69879;BME280;57161;43.136;24.706;2022-09-09T05:12:22;99174.66;;;21.21;57.23
69879;BME280;57161;43.136;24.706;2022-09-09T05:14:49;99176.63;;;21.31;56.54
69879;BME280;57161;43.136;24.706;2022-09-09T05:17:15;99164.78;;;21.34;56.55
69879;BME280;57161;43.136;24.706;2022-09-09T05:19:41;99166.94;;;21.47;56.39
69879;BME280;57161;43.136;24.706;2022-09-09T05:22:07;99174.38;;;21.52;56.43
69879;BME280;57161;43.136;24.706;2022-09-09T05:24:33;99184.84;;;21.62;56.80
69879;BME280;57161;43.136;24.706;2022-09-09T05:26:59;99168.78;;;21.66;56.15
69879;BME280;57161;43.136;24.706;2022-09-09T05:29:26;99159.84;;;21.72;56.20
69879;BME280;57161;43.136;24.706;2022-09-09T05:31:52;99161.22;;;21.71;56.45
69879;BME280;57161;43.136;24.706;2022-09-09T05:34:18;99160.56;;;21.72;56.56
69879;BME280;57161;43.136;24.706;2022-09-09T05:36:43;99166.66;;;21.67;56.90
69879;BME280;57161;43.136;24.706;2022-09-09T05:39:09;99157.16;;;21.62;57.32
69879;BME280;57161;43.136;24.706;2022-09-09T05:41:37;99164.44;;;21.65;57.29
69879;BME280;57161;43.136;24.706;2022-09-09T05:44:02;99157.63;;;21.70;57.41
69879;BME280;57161;43.136;24.706;2022-09-09T05:46:29;99143.66;;;21.63;57.48
69879;BME280;57161;43.136;24.706;2022-09-09T05:48:55;99153.72;;;21.89;57.08
69879;BME280;57161;43.136;24.706;2022-09-09T05:51:23;99146.50;;;22.00;57.02
69879;BME280;57161;43.136;24.706;2022-09-09T05:53:50;99144.84;;;22.08;56.44
69879;BME280;57161;43.136;24.706;2022-09-09T05:56:24;99150.41;;;22.32;55.71
69879;BME280;57161;43.136;24.706;2022-09-09T05:58:51;99139.34;;;22.38;56.04
69879;BME280;57161;43.136;24.706;2022-09-09T06:01:27;99150.03;;;22.51;55.47
69879;BME280;57161;43.136;24.706;2022-09-09T06:03:54;99156.19;;;22.73;55.44
69879;BME280;57161;43.136;24.706;2022-09-09T06:06:22;99155.28;;;22.96;55.04
69879;BME280;57161;43.136;24.706;2022-09-09T06:08:50;99161.50;;;23.06;55.07
69879;BME280;57161;43.136;24.706;2022-09-09T06:11:24;99149.47;;;23.21;55.01
69879;BME280;57161;43.136;24.706;2022-09-09T06:13:50;99157.56;;;23.41;54.88
69879;BME280;57161;43.136;24.706;2022-09-09T06:16:21;99150.59;;;23.57;53.92
69879;BME280;57161;43.136;24.706;2022-09-09T06:18:49;99144.94;;;23.73;53.40
69879;BME280;57161;43.136;24.706;2022-09-09T06:23:45;99144.13;;;24.00;52.80
69879;BME280;57161;43.136;24.706;2022-09-09T06:28:43;99131.06;;;24.11;52.58
69879;BME280;57161;43.136;24.706;2022-09-09T06:31:11;99148.75;;;24.23;52.07
69879;BME280;57161;43.136;24.706;2022-09-09T06:33:38;99156.44;;;24.34;51.39
69879;BME280;57161;43.136;24.706;2022-09-09T06:36:07;99159.31;;;24.50;51.56
69879;BME280;57161;43.136;24.706;2022-09-09T06:38:35;99140.44;;;24.59;50.95
69879;BME280;57161;43.136;24.706;2022-09-09T06:41:01;99144.56;;;24.87;51.19
69879;BME280;57161;43.136;24.706;2022-09-09T06:43:27;99146.78;;;25.04;50.29
69879;BME280;57161;43.136;24.706;2022-09-09T06:45:58;99154.56;;;25.20;50.31
69879;BME280;57161;43.136;24.706;2022-09-09T06:48:27;99157.47;;;25.37;49.72
69879;BME280;57161;43.136;24.706;2022-09-09T06:53:26;99152.53;;;25.71;49.83
69879;BME280;57161;43.136;24.706;2022-09-09T06:55:53;99162.50;;;25.88;48.98
69879;BME280;57161;43.136;24.706;2022-09-09T06:58:20;99147.25;;;26.01;48.35
69879;BME280;57161;43.136;24.706;2022-09-09T07:00:47;99158.38;;;26.11;48.11
69879;BME280;57161;43.136;24.706;2022-09-09T07:03:13;99164.97;;;26.33;48.08
69879;BME280;57161;43.136;24.706;2022-09-09T07:05:38;99153.06;;;26.39;47.44
69879;BME280;57161;43.136;24.706;2022-09-09T07:08:04;99161.81;;;26.43;47.44
69879;BME280;57161;43.136;24.706;2022-09-09T07:10:29;99164.13;;;26.67;46.79
69879;BME280;57161;43.136;24.706;2022-09-09T07:12:55;99167.38;;;26.77;46.95
69879;BME280;57161;43.136;24.706;2022-09-09T07:15:20;99167.91;;;26.91;46.47
69879;BME280;57161;43.136;24.706;2022-09-09T07:17:48;99170.66;;;27.07;46.01
69879;BME280;57161;43.136;24.706;2022-09-09T07:20:14;99160.91;;;27.16;45.52
69879;BME280;57161;43.136;24.706;2022-09-09T07:22:40;99155.84;;;27.14;45.71
69879;BME280;57161;43.136;24.706;2022-09-09T07:25:07;99161.47;;;27.32;45.70
69879;BME280;57161;43.136;24.706;2022-09-09T07:27:32;99158.38;;;27.46;45.30
69879;BME280;57161;43.136;24.706;2022-09-09T07:29:58;99161.72;;;27.60;44.69
69879;BME280;57161;43.136;24.706;2022-09-09T07:32:24;99161.88;;;27.64;44.47
69879;BME280;57161;43.136;24.706;2022-09-09T07:34:51;99149.75;;;27.66;44.75
69879;BME280;57161;43.136;24.706;2022-09-09T07:37:16;99166.31;;;27.89;44.67
69879;BME280;57161;43.136;24.706;2022-09-09T07:39:42;99167.84;;;27.92;44.02
69879;BME280;57161;43.136;24.706;2022-09-09T07:42:08;99162.44;;;28.02;43.80
69879;BME280;57161;43.136;24.706;2022-09-09T07:44:35;99165.66;;;28.15;43.26
69879;BME280;57161;43.136;24.706;2022-09-09T07:47:02;99164.59;;;28.26;43.32
69879;BME280;57161;43.136;24.706;2022-09-09T07:49:28;99158.41;;;28.33;43.24
69879;BME280;57161;43.136;24.706;2022-09-09T07:51:54;99159.84;;;28.58;42.61
69879;BME280;57161;43.136;24.706;2022-09-09T07:54:20;99164.66;;;28.76;42.59
69879;BME280;57161;43.136;24.706;2022-09-09T07:56:46;99155.09;;;28.93;42.49
69879;BME280;57161;43.136;24.706;2022-09-09T07:59:12;99161.38;;;29.11;41.57
69879;BME280;57161;43.136;24.706;2022-09-09T08:01:43;99157.94;;;29.17;41.56
69879;BME280;57161;43.136;24.706;2022-09-09T08:04:13;99161.19;;;29.31;41.72
69879;BME280;57161;43.136;24.706;2022-09-09T08:06:48;99162.44;;;29.50;40.52
69879;BME280;57161;43.136;24.706;2022-09-09T08:09:14;99166.97;;;29.59;40.90
69879;BME280;57161;43.136;24.706;2022-09-09T08:11:41;99160.59;;;29.63;41.40
69879;BME280;57161;43.136;24.706;2022-09-09T08:14:08;99166.66;;;29.75;40.90
69879;BME280;57161;43.136;24.706;2022-09-09T08:16:39;99163.56;;;29.95;40.12
69879;BME280;57161;43.136;24.706;2022-09-09T08:19:06;99143.44;;;29.97;40.36
69879;BME280;57161;43.136;24.706;2022-09-09T08:21:33;99141.75;;;30.15;40.07
69879;BME280;57161;43.136;24.706;2022-09-09T08:24:00;99138.22;;;30.19;39.52
69879;BME280;57161;43.136;24.706;2022-09-09T08:26:31;99135.34;;;30.19;39.96
69879;BME280;57161;43.136;24.706;2022-09-09T08:28:59;99144.22;;;30.29;38.96
69879;BME280;57161;43.136;24.706;2022-09-09T08:31:36;99143.09;;;30.44;38.74
69879;BME280;57161;43.136;24.706;2022-09-09T08:34:03;99147.81;;;30.62;37.75
69879;BME280;57161;43.136;24.706;2022-09-09T08:36:30;99142.22;;;30.70;37.12
69879;BME280;57161;43.136;24.706;2022-09-09T08:38:59;99141.63;;;30.75;36.52
69879;BME280;57161;43.136;24.706;2022-09-09T08:49:57;99139.88;;;30.96;36.65
69879;BME280;57161;43.136;24.706;2022-09-09T08:52:29;99135.16;;;31.13;37.02
69879;BME280;57161;43.136;24.706;2022-09-09T08:55:05;99134.66;;;31.25;36.80
69879;BME280;57161;43.136;24.706;2022-09-09T08:57:38;99128.28;;;31.30;37.01
69879;BME280;57161;43.136;24.706;2022-09-09T09:00:04;99127.56;;;31.32;37.00
69879;BME280;57161;43.136;24.706;2022-09-09T09:08:27;99127.03;;;31.42;37.05
69879;BME280;57161;43.136;24.706;2022-09-09T09:10:58;99115.47;;;31.42;36.52
69879;BME280;57161;43.136;24.706;2022-09-09T09:16:56;99133.22;;;31.68;33.84
69879;BME280;57161;43.136;24.706;2022-09-09T09:19:23;99120.00;;;31.53;34.66
69879;BME280;57161;43.136;24.706;2022-09-09T09:27:16;99116.13;;;31.80;34.50
69879;BME280;57161;43.136;24.706;2022-09-09T09:29:44;99114.94;;;31.95;34.88
69879;BME280;57161;43.136;24.706;2022-09-09T09:32:14;99106.47;;;32.10;33.54
69879;BME280;57161;43.136;24.706;2022-09-09T09:34:41;99109.72;;;32.34;33.32
69879;BME280;57161;43.136;24.706;2022-09-09T09:37:17;99093.97;;;32.45;33.74
69879;BME280;57161;43.136;24.706;2022-09-09T09:39:45;99100.53;;;32.50;33.10
69879;BME280;57161;43.136;24.706;2022-09-09T09:42:13;99102.69;;;32.49;33.24
69879;BME280;57161;43.136;24.706;2022-09-09T09:44:40;99096.16;;;32.47;32.88
69879;BME280;57161;43.136;24.706;2022-09-09T09:47:16;99108.41;;;32.45;32.93
69879;BME280;57161;43.136;24.706;2022-09-09T09:49:52;99099.53;;;32.29;33.53
69879;BME280;57161;43.136;24.706;2022-09-09T09:52:23;99104.81;;;32.45;33.32
69879;BME280;57161;43.136;24.706;2022-09-09T09:54:50;99104.28;;;32.61;33.60
69879;BME280;57161;43.136;24.706;2022-09-09T09:57:18;99093.59;;;32.73;33.64
69879;BME280;57161;43.136;24.706;2022-09-09T09:59:45;99107.56;;;32.93;33.16
69879;BME280;57161;43.136;24.706;2022-09-09T10:02:22;99092.56;;;33.13;33.02
69879;BME280;57161;43.136;24.706;2022-09-09T10:07:31;99097.13;;;33.34;33.35
69879;BME280;57161;43.136;24.706;2022-09-09T10:09:59;99095.75;;;33.39;32.86
69879;BME280;57161;43.136;24.706;2022-09-09T10:12:30;99095.03;;;33.41;33.07
69879;BME280;57161;43.136;24.706;2022-09-09T10:15:29;99108.06;;;33.38;33.42
69879;BME280;57161;43.136;24.706;2022-09-09T10:18:25;99102.16;;;33.32;33.56
69879;BME280;57161;43.136;24.706;2022-09-09T10:24:16;99093.97;;;33.08;34.23
69879;BME280;57161;43.136;24.706;2022-09-09T10:37:34;99097.94;;;32.74;35.94
69879;BME280;57161;43.136;24.706;2022-09-09T10:40:19;99090.53;;;32.61;35.93
69879;BME280;57161;43.136;24.706;2022-09-09T10:42:46;99093.44;;;32.61;35.90
69879;BME280;57161;43.136;24.706;2022-09-09T10:48:31;99103.94;;;32.93;34.68
69879;BME280;57161;43.136;24.706;2022-09-09T10:53:43;99103.84;;;32.82;34.94
69879;BME280;57161;43.136;24.706;2022-09-09T10:56:16;99105.25;;;32.81;34.98
69879;BME280;57161;43.136;24.706;2022-09-09T10:59:07;99099.41;;;32.77;33.96
69879;BME280;57161;43.136;24.706;2022-09-09T11:01:43;99096.28;;;32.57;33.61
69879;BME280;57161;43.136;24.706;2022-09-09T11:04:22;99098.13;;;32.89;33.52
69879;BME280;57161;43.136;24.706;2022-09-09T11:06:53;99098.25;;;33.03;32.61
69879;BME280;57161;43.136;24.706;2022-09-09T11:09:31;99086.88;;;33.21;32.51
69879;BME280;57161;43.136;24.706;2022-09-09T11:12:00;99084.13;;;33.35;32.94
69879;BME280;57161;43.136;24.706;2022-09-09T11:17:03;99086.16;;;33.21;33.05
69879;BME280;57161;43.136;24.706;2022-09-09T11:21:59;99092.16;;;33.41;32.97
69879;BME280;57161;43.136;24.706;2022-09-09T11:38:25;99087.44;;;32.43;34.91
69879;BME280;57161;43.136;24.706;2022-09-09T11:41:00;99086.94;;;32.08;35.68
69879;BME280;57161;43.136;24.706;2022-09-09T11:46:04;99078.34;;;32.12;35.92
69879;BME280;57161;43.136;24.706;2022-09-09T11:48:56;99073.44;;;32.23;36.21
69879;BME280;57161;43.136;24.706;2022-09-09T11:51:26;99086.47;;;32.26;36.28
69879;BME280;57161;43.136;24.706;2022-09-09T11:54:24;99087.16;;;32.22;35.97
69879;BME280;57161;43.136;24.706;2022-09-09T11:56:45;99081.16;;;32.06;36.34
69879;BME280;57161;43.136;24.706;2022-09-09T11:59:23;99083.97;;;32.02;36.47
69879;BME280;57161;43.136;24.706;2022-09-09T12:01:59;99084.91;;;31.71;36.32
69879;BME280;57161;43.136;24.706;2022-09-09T12:04:38;99076.06;;;31.58;36.35
69879;BME280;57161;43.136;24.706;2022-09-09T12:10:02;99082.19;;;31.79;36.19
69879;BME280;57161;43.136;24.706;2022-09-09T12:12:31;99075.50;;;31.70;36.33
69879;BME280;57161;43.136;24.706;2022-09-09T12:15:16;99078.22;;;31.58;36.54
69879;BME280;57161;43.136;24.706;2022-09-09T12:17:57;99064.34;;;31.48;36.48
69879;BME280;57161;43.136;24.706;2022-09-09T12:20:54;99062.16;;;31.47;36.59
69879;BME280;57161;43.136;24.706;2022-09-09T12:23:30;99048.41;;;31.43;36.89
69879;BME280;57161;43.136;24.706;2022-09-09T12:28:39;99045.66;;;31.53;37.01
69879;BME280;57161;43.136;24.706;2022-09-09T12:34:14;99048.31;;;31.83;36.85
69879;BME280;57161;43.136;24.706;2022-09-09T12:36:41;99035.25;;;31.80;36.84
69879;BME280;57161;43.136;24.706;2022-09-09T12:39:35;99040.75;;;32.10;36.34
69879;BME280;57161;43.136;24.706;2022-09-09T12:42:03;99027.66;;;32.05;36.57
69879;BME280;57161;43.136;24.706;2022-09-09T12:44:29;99044.31;;;32.07;36.82
69879;BME280;57161;43.136;24.706;2022-09-09T12:46:57;99046.31;;;31.96;37.50
69879;BME280;57161;43.136;24.706;2022-09-09T12:49:37;99047.63;;;31.87;37.38
69879;BME280;57161;43.136;24.706;2022-09-09T12:54:32;99023.75;;;31.38;37.92
69879;BME280;57161;43.136;24.706;2022-09-09T12:56:58;99042.69;;;31.47;37.87
69879;BME280;57161;43.136;24.706;2022-09-09T12:59:36;99032.44;;;31.40;38.21
69879;BME280;57161;43.136;24.706;2022-09-09T13:02:02;99045.88;;;31.23;38.26
69879;BME280;57161;43.136;24.706;2022-09-09T13:04:27;99050.81;;;31.17;38.88
69879;BME280;57161;43.136;24.706;2022-09-09T13:06:53;99037.50;;;30.97;39.05
69879;BME280;57161;43.136;24.706;2022-09-09T13:09:19;99043.72;;;30.84;39.63
69879;BME280;57161;43.136;24.706;2022-09-09T13:11:54;99034.03;;;30.67;40.01
69879;BME280;57161;43.136;24.706;2022-09-09T13:14:33;99032.38;;;30.58;40.22
69879;BME280;57161;43.136;24.706;2022-09-09T13:17:01;99047.66;;;30.62;39.72
69879;BME280;57161;43.136;24.706;2022-09-09T13:19:35;99039.56;;;30.57;39.40
69879;BME280;57161;43.136;24.706;2022-09-09T13:22:29;99041.25;;;30.68;40.28
69879;BME280;57161;43.136;24.706;2022-09-09T13:25:26;99043.34;;;30.63;40.18
69879;BME280;57161;43.136;24.706;2022-09-09T13:28:03;99042.44;;;30.57;39.90
69879;BME280;57161;43.136;24.706;2022-09-09T13:30:30;99044.22;;;30.36;40.50
69879;BME280;57161;43.136;24.706;2022-09-09T13:35:35;99051.31;;;30.31;40.85
69879;BME280;57161;43.136;24.706;2022-09-09T13:38:14;99046.75;;;30.20;40.79
69879;BME280;57161;43.136;24.706;2022-09-09T13:40:40;99041.44;;;30.08;41.24
69879;BME280;57161;43.136;24.706;2022-09-09T13:43:21;99047.78;;;30.02;42.02
69879;BME280;57161;43.136;24.706;2022-09-09T13:45:54;99039.38;;;30.10;41.92
69879;BME280;57161;43.136;24.706;2022-09-09T13:48:22;99029.75;;;30.00;42.28
69879;BME280;57161;43.136;24.706;2022-09-09T13:51:04;99036.41;;;30.08;42.14
69879;BME280;57161;43.136;24.706;2022-09-09T13:53:32;99026.31;;;30.07;42.23
69879;BME280;57161;43.136;24.706;2022-09-09T13:55:58;99037.09;;;30.07;42.75
69879;BME280;57161;43.136;24.706;2022-09-09T13:58:24;99026.22;;;30.03;43.09
69879;BME280;57161;43.136;24.706;2022-09-09T14:00:52;99037.06;;;30.05;43.26
69879;BME280;57161;43.136;24.706;2022-09-09T14:03:18;99019.81;;;30.07;42.98
69879;BME280;57161;43.136;24.706;2022-09-09T14:05:45;99025.09;;;30.16;43.54
69879;BME280;57161;43.136;24.706;2022-09-09T14:08:23;99025.91;;;30.21;43.27
69879;BME280;57161;43.136;24.706;2022-09-09T14:10:49;99022.53;;;30.33;43.73
69879;BME280;57161;43.136;24.706;2022-09-09T14:13:14;99018.97;;;30.34;43.78
69879;BME280;57161;43.136;24.706;2022-09-09T14:15:40;99023.91;;;30.30;43.75
69879;BME280;57161;43.136;24.706;2022-09-09T14:18:11;99018.06;;;30.26;43.99
69879;BME280;57161;43.136;24.706;2022-09-09T14:20:37;99020.28;;;30.27;44.07
69879;BME280;57161;43.136;24.706;2022-09-09T14:23:03;99017.25;;;30.21;44.02
69879;BME280;57161;43.136;24.706;2022-09-09T14:25:28;99014.31;;;30.19;44.35
69879;BME280;57161;43.136;24.706;2022-09-09T14:27:54;99007.09;;;30.18;44.42
69879;BME280;57161;43.136;24.706;2022-09-09T14:30:21;99022.41;;;30.27;43.88
69879;BME280;57161;43.136;24.706;2022-09-09T14:32:47;99010.28;;;30.32;43.24
69879;BME280;57161;43.136;24.706;2022-09-09T14:35:12;99025.41;;;30.33;43.27
69879;BME280;57161;43.136;24.706;2022-09-09T14:37:37;99027.56;;;30.32;43.52
69879;BME280;57161;43.136;24.706;2022-09-09T14:40:04;99027.59;;;30.34;43.74
69879;BME280;57161;43.136;24.706;2022-09-09T14:42:30;99028.19;;;30.27;43.90
69879;BME280;57161;43.136;24.706;2022-09-09T14:44:55;99027.38;;;30.24;43.70
69879;BME280;57161;43.136;24.706;2022-09-09T14:47:21;99028.56;;;30.11;43.80
69879;BME280;57161;43.136;24.706;2022-09-09T14:49:47;99024.47;;;29.90;44.36
69879;BME280;57161;43.136;24.706;2022-09-09T14:52:15;99013.47;;;29.80;44.73
69879;BME280;57161;43.136;24.706;2022-09-09T14:54:41;99010.56;;;29.78;44.89
69879;BME280;57161;43.136;24.706;2022-09-09T14:57:06;99019.13;;;29.76;45.45
69879;BME280;57161;43.136;24.706;2022-09-09T14:59:32;99020.69;;;29.81;45.08
69879;BME280;57161;43.136;24.706;2022-09-09T15:01:57;99040.34;;;29.91;44.93
69879;BME280;57161;43.136;24.706;2022-09-09T15:04:25;99030.94;;;29.88;45.28
69879;BME280;57161;43.136;24.706;2022-09-09T15:06:51;99042.28;;;29.80;45.53
69879;BME280;57161;43.136;24.706;2022-09-09T15:09:18;99039.88;;;29.71;45.74
69879;BME280;57161;43.136;24.706;2022-09-09T15:11:43;99046.41;;;29.73;45.96